createdAt,value
2019-05-09T00:01:27.684Z,9.71
2019-05-09T00:06:34.070Z,9.78
2019-05-09T00:11:40.034Z,9.82
2019-05-09T00:16:45.917Z,9.82
2019-05-09T00:21:54.134Z,9.82
2019-05-09T00:27:00.092Z,9.88
2019-05-09T00:32:14.910Z,9.93
2019-05-09T00:37:23.834Z,9.93
2019-05-09T00:42:29.986Z,9.99
2019-05-09T00:47:35.861Z,10.00
2019-05-09T00:52:43.079Z,10.02
2019-05-09T00:57:50.049Z,9.99
2019-05-09T01:02:55.918Z,9.99
2019-05-09T01:08:04.217Z,9.89
2019-05-09T01:13:10.319Z,9.87
2019-05-09T01:18:16.397Z,9.81
2019-05-09T01:23:23.397Z,9.76
2019-05-09T01:28:29.778Z,9.63
2019-05-09T01:33:38.195Z,9.61
2019-05-09T01:38:44.173Z,9.61
2019-05-09T01:43:53.504Z,9.68
2019-05-09T01:48:58.819Z,9.59
2019-05-09T01:54:05.562Z,9.58
2019-05-09T01:59:13.535Z,9.52
2019-05-09T02:04:19.804Z,9.49
2019-05-09T02:09:25.666Z,9.42
2019-05-09T02:14:34.955Z,9.38
2019-05-09T02:19:43.974Z,9.39
2019-05-09T02:24:50.135Z,9.28
2019-05-09T02:29:56.002Z,9.21
2019-05-09T02:35:04.920Z,9.23
2019-05-09T02:40:11.117Z,9.32
2019-05-09T02:45:19.150Z,9.27
2019-05-09T02:50:24.807Z,9.39
2019-05-09T02:55:30.778Z,9.42
2019-05-09T03:00:54.465Z,9.47
2019-05-09T03:08:59.597Z,9.31
2019-05-09T03:14:08.794Z,9.14
2019-05-09T03:19:13.658Z,9.28
2019-05-09T03:24:19.699Z,9.39
2019-05-09T03:29:33.566Z,9.46
2019-05-09T03:34:39.631Z,9.49
2019-05-09T03:39:47.810Z,9.56
2019-05-09T03:44:52.670Z,9.63
2019-05-09T03:50:09.170Z,9.67
2019-05-09T03:55:18.083Z,9.80
2019-05-09T04:00:24.836Z,9.73
2019-05-09T04:05:30.791Z,9.82
2019-05-09T04:10:38.533Z,9.74
2019-05-09T04:15:43.853Z,9.91
2019-05-09T04:20:49.955Z,10.24
2019-05-09T04:26:12.754Z,10.17
2019-05-09T04:31:18.709Z,10.33
2019-05-09T04:36:39.757Z,10.43
2019-05-09T04:41:45.708Z,10.42
2019-05-09T04:46:54.254Z,10.51
2019-05-09T04:51:59.372Z,10.44
2019-05-09T04:57:07.761Z,10.65
2019-05-09T05:02:17.682Z,10.77
2019-05-09T05:07:23.427Z,10.76
2019-05-09T05:12:29.347Z,10.86
2019-05-09T05:17:37.620Z,11.11
2019-05-09T05:22:44.533Z,11.17
2019-05-09T05:27:50.508Z,11.35
2019-05-09T05:32:58.120Z,11.40
2019-05-09T05:38:04.289Z,11.56
2019-05-09T05:43:10.307Z,11.65
2019-05-09T05:48:17.954Z,11.77
2019-05-09T05:53:24.020Z,11.81
2019-05-09T05:58:30.098Z,12.06
2019-05-09T06:03:38.356Z,12.31
2019-05-09T06:08:44.394Z,12.33
2019-05-09T06:13:56.441Z,12.49
2019-05-09T06:18:59.105Z,12.67
2019-05-09T06:24:05.276Z,12.71
2019-05-09T06:29:11.234Z,12.65
2019-05-09T06:34:18.831Z,12.57
2019-05-09T06:39:25.045Z,12.57
2019-05-09T06:44:32.639Z,12.67
2019-05-09T06:49:40.149Z,12.57
2019-05-09T06:54:48.418Z,12.62
2019-05-09T06:59:54.035Z,12.74
2019-05-09T07:05:07.743Z,12.90
2019-05-09T07:10:13.964Z,12.80
2019-05-09T07:15:19.940Z,12.85
2019-05-09T07:20:25.909Z,12.83
2019-05-09T07:25:33.620Z,12.84
2019-05-09T07:30:47.954Z,12.87
2019-05-09T07:35:53.226Z,12.87
2019-05-09T07:41:00.915Z,12.88
2019-05-09T07:46:12.464Z,12.92
2019-05-09T07:51:18.530Z,13.03
2019-05-09T07:56:24.596Z,13.18
2019-05-09T08:01:30.879Z,13.35
2019-05-09T08:06:38.013Z,13.44
2019-05-09T08:11:44.062Z,13.53
2019-05-09T08:16:49.979Z,13.66
2019-05-09T08:21:57.527Z,13.93
2019-05-09T08:27:03.721Z,14.22
2019-05-09T08:32:09.885Z,14.46
2019-05-09T08:37:17.594Z,14.54
2019-05-09T08:42:23.664Z,14.82
2019-05-09T08:47:29.647Z,14.92
2019-05-09T08:52:37.628Z,14.88
2019-05-09T08:57:43.626Z,14.90
2019-05-09T09:02:49.636Z,15.07
2019-05-09T09:07:57.778Z,15.30
2019-05-09T09:13:03.279Z,15.66
2019-05-09T09:18:09.284Z,15.75
2019-05-09T09:23:17.838Z,15.81
2019-05-09T09:28:22.941Z,16.05
2019-05-09T09:33:29.320Z,16.10
2019-05-09T09:38:37.498Z,16.55
2019-05-09T09:43:43.148Z,16.43
2019-05-09T09:48:49.075Z,16.17
2019-05-09T09:53:58.029Z,16.51
2019-05-09T09:59:20.492Z,16.72
2019-05-09T10:04:28.357Z,16.70
2019-05-09T10:09:34.167Z,16.88
2019-05-09T10:14:44.629Z,17.22
2019-05-09T10:20:07.228Z,17.60
2019-05-09T10:25:13.777Z,17.59
2019-05-09T10:30:33.231Z,17.58
2019-05-09T10:35:40.270Z,17.67
2019-05-09T10:40:48.542Z,17.75
2019-05-09T10:46:15.360Z,18.01
2019-05-09T10:51:19.466Z,18.17
2019-05-09T10:56:27.807Z,18.20
2019-05-09T11:01:33.087Z,17.83
2019-05-09T11:06:39.032Z,17.78
2019-05-09T11:11:45.197Z,18.10
2019-05-09T11:17:06.731Z,18.33
2019-05-09T11:21:58.889Z,18.54
2019-05-09T11:27:04.850Z,18.31
2019-05-09T11:32:10.917Z,18.38
2019-05-09T11:37:16.932Z,18.46
2019-05-09T11:42:23.122Z,18.44
2019-05-09T11:47:39.486Z,18.07
2019-05-09T11:52:38.294Z,17.96
2019-05-09T11:57:44.670Z,17.83
2019-05-09T12:02:50.690Z,17.77
2019-05-09T12:07:58.131Z,17.99
2019-05-09T12:13:04.427Z,18.12
2019-05-09T12:18:11.587Z,17.92
2019-05-09T12:23:19.983Z,17.86
2019-05-09T12:28:25.305Z,17.83
2019-05-09T12:33:33.341Z,17.95
2019-05-09T12:38:39.139Z,18.04
2019-05-09T12:43:45.266Z,18.01
2019-05-09T12:48:51.273Z,17.55
2019-05-09T12:53:58.449Z,17.64
2019-05-09T12:59:04.507Z,17.80
2019-05-09T13:04:10.494Z,17.57
2019-05-09T13:09:17.815Z,17.35
2019-05-09T13:14:24.266Z,17.16
2019-05-09T13:19:32.289Z,16.84
2019-05-09T13:24:38.262Z,16.91
2019-05-09T13:29:44.846Z,16.74
2019-05-09T13:34:50.916Z,16.77
2019-05-09T13:39:56.685Z,16.61
2019-05-09T13:45:02.651Z,16.45
2019-05-09T13:50:10.370Z,16.45
2019-05-09T13:55:17.880Z,16.48
2019-05-09T14:00:24.189Z,16.44
2019-05-09T14:05:30.590Z,16.40
2019-05-09T14:10:38.755Z,16.18
2019-05-09T14:15:44.454Z,16.13
2019-05-09T14:20:50.822Z,16.13
2019-05-09T14:25:59.058Z,16.20
2019-05-09T14:31:04.846Z,16.25
2019-05-09T14:36:10.763Z,16.30
2019-05-09T14:41:19.277Z,16.21
2019-05-09T14:46:25.262Z,15.92
2019-05-09T14:51:31.231Z,15.73
2019-05-09T14:56:41.958Z,15.62
2019-05-09T15:01:44.880Z,15.50
2019-05-09T15:06:50.890Z,15.39
2019-05-09T15:11:58.618Z,15.38
2019-05-09T15:17:04.913Z,15.28
2019-05-09T15:22:10.852Z,15.18
2019-05-09T15:27:17.714Z,15.32
2019-05-09T15:32:23.917Z,15.34
2019-05-09T15:37:30.108Z,15.27
2019-05-09T15:42:38.668Z,15.37
2019-05-09T15:47:43.775Z,15.22
2019-05-09T15:52:49.831Z,15.11
2019-05-09T15:57:57.700Z,14.70
2019-05-09T16:03:03.432Z,14.36
2019-05-09T16:08:11.591Z,14.19
2019-05-09T16:13:17.860Z,14.12
2019-05-09T16:18:23.872Z,14.05
2019-05-09T16:23:29.978Z,14.03
2019-05-09T16:28:37.917Z,13.82
2019-05-09T16:33:43.963Z,13.79
2019-05-09T16:38:50.165Z,13.71
2019-05-09T16:43:58.396Z,13.64
2019-05-09T16:49:05.197Z,13.64
2019-05-09T16:54:11.547Z,13.58
2019-05-09T16:59:18.154Z,13.67
2019-05-09T17:04:24.195Z,13.83
2019-05-09T17:09:30.229Z,13.80
2019-05-09T17:14:36.263Z,13.70
2019-05-09T17:19:42.520Z,13.37
2019-05-09T17:24:49.303Z,13.53
2019-05-09T17:29:55.379Z,13.55
2019-05-09T17:35:01.557Z,13.44
2019-05-09T17:40:08.078Z,13.35
2019-05-09T17:45:14.928Z,13.30
2019-05-09T17:50:21.121Z,13.18
2019-05-09T17:55:27.282Z,12.98
2019-05-09T18:00:33.476Z,12.93
2019-05-09T18:05:39.544Z,12.87
2019-05-09T18:10:45.571Z,12.74
2019-05-09T18:15:51.673Z,12.63
2019-05-09T18:20:58.136Z,12.53
2019-05-09T18:26:04.739Z,12.42
2019-05-09T18:31:10.718Z,12.37
2019-05-09T18:36:16.792Z,12.25
2019-05-09T18:41:22.959Z,12.26
2019-05-09T18:46:29.042Z,12.29
2019-05-09T18:51:35.007Z,12.24
2019-05-09T18:56:42.210Z,12.31
2019-05-09T19:01:48.386Z,12.27
2019-05-09T19:06:54.766Z,12.11
2019-05-09T19:12:01.962Z,12.25
2019-05-09T19:17:10.905Z,12.32
2019-05-09T19:22:22.403Z,12.27
2019-05-09T19:27:24.600Z,12.29
2019-05-09T19:32:30.561Z,12.27
2019-05-09T19:37:36.731Z,12.16
2019-05-09T19:42:42.606Z,12.10
2019-05-09T19:47:48.682Z,12.02
2019-05-09T19:52:54.751Z,12.00
2019-05-09T19:58:01.845Z,11.93
2019-05-09T20:03:07.828Z,11.78
2019-05-09T20:08:15.119Z,11.67
2019-05-09T20:13:22.938Z,11.64
2019-05-09T20:18:29.018Z,11.59
2019-05-09T20:23:35.081Z,11.55
2019-05-09T20:28:41.183Z,11.64
2019-05-09T20:33:47.124Z,11.65
2019-05-09T20:38:53.325Z,11.73
2019-05-09T20:43:59.476Z,11.82
2019-05-09T20:49:05.652Z,11.71
2019-05-09T20:54:20.532Z,11.70
2019-05-09T20:59:19.539Z,11.67
2019-05-09T21:04:25.716Z,11.77
2019-05-09T21:09:32.002Z,11.77
2019-05-09T21:14:38.166Z,11.74
2019-05-09T21:19:44.240Z,11.85
2019-05-09T21:24:50.524Z,11.81
2019-05-09T21:29:56.655Z,11.80
2019-05-09T21:35:02.563Z,11.85
2019-05-09T21:40:09.662Z,11.68
2019-05-09T21:45:16.595Z,11.69
2019-05-09T21:50:22.520Z,11.66
2019-05-09T21:55:28.495Z,11.56
2019-05-09T22:00:38.139Z,11.51
2019-05-09T22:05:44.332Z,11.51
2019-05-09T22:10:50.405Z,11.48
2019-05-09T22:15:56.475Z,11.40
2019-05-09T22:21:02.447Z,11.36
2019-05-09T22:26:08.415Z,11.38
2019-05-09T22:31:14.435Z,11.42
2019-05-09T22:36:20.355Z,11.49
2019-05-09T22:41:26.328Z,11.39
2019-05-09T22:46:32.196Z,11.35
2019-05-09T22:51:38.170Z,11.32
2019-05-09T22:56:44.139Z,11.32
2019-05-09T23:01:50.115Z,11.21
2019-05-09T23:06:56.098Z,11.34
2019-05-09T23:12:02.256Z,11.44
2019-05-09T23:17:09.397Z,11.39
2019-05-09T23:22:16.021Z,11.61
2019-05-09T23:27:21.913Z,11.61
2019-05-09T23:32:32.457Z,11.56
2019-05-09T23:37:38.473Z,11.51
2019-05-09T23:42:44.534Z,11.38
2019-05-09T23:47:51.737Z,11.42
2019-05-09T23:52:57.806Z,11.65
2019-05-09T23:58:21.702Z,11.76
